CheckWX is a tool to help pilots better visualize weather data.  It is not intended as a substitute for an official pre-flight weather briefing.

03:01:49 UTC

KDIJ TAF
Driggs-Reed Memorial Airport
Driggs, Idaho, USA
KDIJ 060520Z 0606/0706 30010KT P6SM OVC020 TEMPO 0606/0607 3SM -SN OVC015 FM060800 16009KT P6SM VCSH SCT025 OVC050 FM061400 18010KT 6SM -RA SCT010 OVC020 FM062000 19010KT P6SM -SHRA VCTS OVC040CB FM070400 17008KT 5SM -SN OVC030 AMD LTD TO CLD VIS AND WIND

Apr-6@
06:00 UTC

Apr-6 @ 06:00 UTC

Apr-6@
08:00 UTC

Apr-6 @ 08:00 UTC

TAF KDIJ 060520Z 0606/0706 30010KT P6SM OVC020

Expired

Wind
  • 300° at 10 KTS
Cloud Levels
  • Overcast at 2,000' AGL

Apr-6@
06:00 UTC

Apr-6 @ 06:00 UTC

Apr-6@
07:00 UTC

Apr-6 @ 07:00 UTC

TEMPO 0606/0607 3SM -SN OVC015

Expired

Conditions
Light Snow
Cloud Levels
  • Overcast at 1,500' AGL

Apr-6@
08:00 UTC

Apr-6 @ 08:00 UTC

Apr-6@
14:00 UTC

Apr-6 @ 14:00 UTC

FM060800 16009KT P6SM VCSH SCT025 OVC050

Expired

Wind
  • 160° at 9 KTS
Conditions
Area Showers
Cloud Levels
  • Scattered at 2,500' AGL
  • Overcast at 5,000' AGL

Apr-6@
14:00 UTC

Apr-6 @ 14:00 UTC

Apr-6@
20:00 UTC

Apr-6 @ 20:00 UTC

FM061400 18010KT 6SM -RA SCT010 OVC020

Expired

Wind
  • 180° at 10 KTS
Conditions
Light Rain
Cloud Levels
  • Scattered at 1,000' AGL
  • Overcast at 2,000' AGL

Apr-6@
20:00 UTC

Apr-6 @ 20:00 UTC

Apr-7@
04:00 UTC

Apr-7 @ 04:00 UTC

FM062000 19010KT P6SM -SHRA VCTS OVC040CB

From

From Standard forecast or significant change

Wind
  • 190° at 10 KTS
Conditions
Light Showers, Rain, Area Thunderstorm
Cloud Levels
  • Overcast at 4,000' AGL

Apr-7@
04:00 UTC

Apr-7 @ 04:00 UTC

Apr-7@
06:00 UTC

Apr-7 @ 06:00 UTC

FM070400 17008KT 5SM -SN OVC030 AMD LTD TO CLD VIS AND WIND

From

From Standard forecast or significant change

Wind
  • 170° at 8 KTS
Conditions
Light Snow
Cloud Levels
  • Overcast at 3,000' AGL